sensor_id;sensor_type;location;lat;lon;timestamp;pressure;altitude;pressure_sealevel;temperature;humidity
23166;BME280;11751;42.700;24.170;2023-05-08T00:01:54;94179.13;;;13.06;nan
23166;BME280;11751;42.700;24.170;2023-05-08T00:04:19;94177.63;;;13.05;nan
23166;BME280;11751;42.700;24.170;2023-05-08T00:06:45;94180.66;;;13.00;nan
23166;BME280;11751;42.700;24.170;2023-05-08T00:09:11;94186.28;;;13.00;nan
23166;BME280;11751;42.700;24.170;2023-05-08T00:11:37;94175.84;;;12.93;nan
23166;BME280;11751;42.700;24.170;2023-05-08T00:14:03;94177.66;;;12.98;nan
23166;BME280;11751;42.700;24.170;2023-05-08T00:16:28;94175.84;;;12.93;nan
23166;BME280;11751;42.700;24.170;2023-05-08T00:18:54;94173.41;;;12.97;nan
23166;BME280;11751;42.700;24.170;2023-05-08T00:21:19;94181.56;;;13.02;nan
23166;BME280;11751;42.700;24.170;2023-05-08T00:23:45;94183.06;;;13.03;nan
23166;BME280;11751;42.700;24.170;2023-05-08T00:26:10;94175.91;;;13.10;nan
23166;BME280;11751;42.700;24.170;2023-05-08T00:28:36;94175.03;;;13.00;nan
23166;BME280;11751;42.700;24.170;2023-05-08T00:31:01;94172.06;;;12.98;nan
23166;BME280;11751;42.700;24.170;2023-05-08T00:33:26;94184.78;;;12.99;nan
23166;BME280;11751;42.700;24.170;2023-05-08T00:36:02;94181.06;;;12.96;nan
23166;BME280;11751;42.700;24.170;2023-05-08T00:38:32;94191.22;;;12.92;nan
23166;BME280;11751;42.700;24.170;2023-05-08T00:40:58;94180.78;;;12.70;nan
23166;BME280;11751;42.700;24.170;2023-05-08T00:43:24;94184.03;;;12.59;nan
23166;BME280;11751;42.700;24.170;2023-05-08T00:45:53;94184.22;;;12.61;nan
23166;BME280;11751;42.700;24.170;2023-05-08T00:48:20;94190.41;;;12.52;nan
23166;BME280;11751;42.700;24.170;2023-05-08T00:50:46;94190.78;;;12.56;nan
23166;BME280;11751;42.700;24.170;2023-05-08T00:53:13;94191.53;;;12.57;nan
23166;BME280;11751;42.700;24.170;2023-05-08T00:55:39;94180.88;;;12.55;nan
23166;BME280;11751;42.700;24.170;2023-05-08T00:58:05;94188.75;;;12.49;nan
23166;BME280;11751;42.700;24.170;2023-05-08T01:00:31;94176.25;;;12.43;nan
23166;BME280;11751;42.700;24.170;2023-05-08T01:02:59;94175.47;;;12.42;nan
23166;BME280;11751;42.700;24.170;2023-05-08T01:05:26;94179.47;;;12.24;nan
23166;BME280;11751;42.700;24.170;2023-05-08T01:07:51;94179.84;;;12.28;nan
23166;BME280;11751;42.700;24.170;2023-05-08T01:10:17;94180.59;;;12.29;nan
23166;BME280;11751;42.700;24.170;2023-05-08T01:13:19;94176.47;;;12.22;nan
23166;BME280;11751;42.700;24.170;2023-05-08T01:15:57;94172.78;;;12.12;nan
23166;BME280;11751;42.700;24.170;2023-05-08T01:18:55;94181.00;;;12.10;nan
23166;BME280;11751;42.700;24.170;2023-05-08T01:21:40;94181.59;;;12.01;nan
23166;BME280;11751;42.700;24.170;2023-05-08T01:35:23;94184.03;;;11.90;nan
23166;BME280;11751;42.700;24.170;2023-05-08T01:41:08;94185.94;;;11.88;nan
23166;BME280;11751;42.700;24.170;2023-05-08T01:46:47;94171.91;;;11.65;nan
23166;BME280;11751;42.700;24.170;2023-05-08T01:49:23;94169.66;;;11.49;nan
23166;BME280;11751;42.700;24.170;2023-05-08T01:51:57;94171.91;;;11.43;nan
23166;BME280;11751;42.700;24.170;2023-05-08T01:54:25;94179.19;;;11.31;nan
23166;BME280;11751;42.700;24.170;2023-05-08T01:56:54;94169.81;;;11.21;nan
23166;BME280;11751;42.700;24.170;2023-05-08T01:59:22;94170.78;;;11.31;nan
23166;BME280;11751;42.700;24.170;2023-05-08T02:01:51;94167.03;;;11.21;nan
23166;BME280;11751;42.700;24.170;2023-05-08T02:04:18;94166.09;;;11.18;nan
23166;BME280;11751;42.700;24.170;2023-05-08T02:06:44;94170.38;;;11.12;nan
23166;BME280;11751;42.700;24.170;2023-05-08T02:09:11;94164.97;;;11.14;nan
23166;BME280;11751;42.700;24.170;2023-05-08T02:11:38;94163.88;;;11.17;nan
23166;BME280;11751;42.700;24.170;2023-05-08T02:14:06;94170.19;;;11.17;nan
23166;BME280;11751;42.700;24.170;2023-05-08T02:16:33;94172.47;;;11.19;nan
23166;BME280;11751;42.700;24.170;2023-05-08T02:19:00;94171.16;;;11.20;nan
23166;BME280;11751;42.700;24.170;2023-05-08T02:21:27;94169.28;;;11.15;nan
23166;BME280;11751;42.700;24.170;2023-05-08T02:23:55;94172.84;;;11.15;nan
23166;BME280;11751;42.700;24.170;2023-05-08T02:26:23;94168.34;;;11.12;nan
23166;BME280;11751;42.700;24.170;2023-05-08T02:28:52;94178.38;;;10.93;nan
23166;BME280;11751;42.700;24.170;2023-05-08T02:31:19;94170.75;;;11.01;nan
23166;BME280;11751;42.700;24.170;2023-05-08T02:33:45;94174.31;;;11.02;nan
23166;BME280;11751;42.700;24.170;2023-05-08T02:36:15;94174.47;;;10.96;nan
23166;BME280;11751;42.700;24.170;2023-05-08T02:38:43;94181.78;;;10.99;nan
23166;BME280;11751;42.700;24.170;2023-05-08T02:41:11;94180.63;;;11.02;nan
23166;BME280;11751;42.700;24.170;2023-05-08T02:43:38;94180.28;;;10.98;nan
23166;BME280;11751;42.700;24.170;2023-05-08T02:46:15;94182.13;;;10.88;nan
23166;BME280;11751;42.700;24.170;2023-05-08T02:48:55;94178.72;;;10.82;nan
23166;BME280;11751;42.700;24.170;2023-05-08T02:51:24;94184.72;;;10.86;nan
23166;BME280;11751;42.700;24.170;2023-05-08T02:53:58;94184.72;;;10.86;nan
23166;BME280;11751;42.700;24.170;2023-05-08T02:56:39;94181.72;;;10.84;nan
23166;BME280;11751;42.700;24.170;2023-05-08T02:59:20;94183.59;;;10.82;nan
23166;BME280;11751;42.700;24.170;2023-05-08T03:01:50;94174.97;;;10.72;nan
23166;BME280;11751;42.700;24.170;2023-05-08T03:04:25;94177.97;;;10.67;nan
23166;BME280;11751;42.700;24.170;2023-05-08T03:06:53;94186.91;;;10.65;nan
23166;BME280;11751;42.700;24.170;2023-05-08T03:09:22;94175.34;;;10.61;nan
23166;BME280;11751;42.700;24.170;2023-05-08T03:11:58;94185.03;;;10.60;nan
23166;BME280;11751;42.700;24.170;2023-05-08T03:14:27;94182.03;;;10.58;nan
23166;BME280;11751;42.700;24.170;2023-05-08T03:16:54;94176.03;;;10.54;nan
23166;BME280;11751;42.700;24.170;2023-05-08T03:19:28;94189.09;;;10.52;nan
23166;BME280;11751;42.700;24.170;2023-05-08T03:21:54;94182.94;;;10.53;nan
23166;BME280;11751;42.700;24.170;2023-05-08T03:24:22;94182.75;;;10.44;nan
23166;BME280;11751;42.700;24.170;2023-05-08T03:26:49;94186.63;;;10.41;nan
23166;BME280;11751;42.700;24.170;2023-05-08T03:29:15;94185.75;;;10.46;nan
23166;BME280;11751;42.700;24.170;2023-05-08T03:31:43;94184.25;;;10.52;nan
23166;BME280;11751;42.700;24.170;2023-05-08T03:34:11;94188.78;;;10.63;nan
23166;BME280;11751;42.700;24.170;2023-05-08T03:36:36;94197.00;;;10.68;nan
23166;BME280;11751;42.700;24.170;2023-05-08T03:39:02;94192.91;;;10.69;nan
23166;BME280;11751;42.700;24.170;2023-05-08T03:41:28;94195.50;;;10.67;nan
23166;BME280;11751;42.700;24.170;2023-05-08T03:43:54;94193.28;;;10.66;nan
23166;BME280;11751;42.700;24.170;2023-05-08T03:46:20;94182.41;;;10.62;nan
23166;BME280;11751;42.700;24.170;2023-05-08T03:48:48;94200.75;;;10.71;nan
23166;BME280;11751;42.700;24.170;2023-05-08T03:51:14;94199.47;;;10.79;nan
23166;BME280;11751;42.700;24.170;2023-05-08T03:53:40;94208.59;;;10.80;nan
23166;BME280;11751;42.700;24.170;2023-05-08T03:56:05;94198.16;;;10.80;nan
23166;BME280;11751;42.700;24.170;2023-05-08T04:01:29;94199.94;;;11.28;nan
23166;BME280;11751;42.700;24.170;2023-05-08T04:04:06;94213.25;;;11.57;nan
23166;BME280;11751;42.700;24.170;2023-05-08T04:06:39;94212.84;;;12.05;nan
23166;BME280;11751;42.700;24.170;2023-05-08T04:09:27;94214.31;;;12.68;nan
23166;BME280;11751;42.700;24.170;2023-05-08T04:12:17;94213.38;;;13.44;nan
23166;BME280;11751;42.700;24.170;2023-05-08T04:14:51;94214.34;;;14.12;nan
23166;BME280;11751;42.700;24.170;2023-05-08T04:17:26;94204.91;;;14.68;nan
23166;BME280;11751;42.700;24.170;2023-05-08T04:19:59;94203.00;;;15.14;nan
23166;BME280;11751;42.700;24.170;2023-05-08T04:22:25;94216.88;;;15.45;nan
23166;BME280;11751;42.700;24.170;2023-05-08T04:24:57;94215.56;;;15.82;nan
23166;BME280;11751;42.700;24.170;2023-05-08T04:27:23;94220.47;;;16.27;nan
23166;BME280;11751;42.700;24.170;2023-05-08T04:29:49;94210.91;;;16.13;nan
23166;BME280;11751;42.700;24.170;2023-05-08T04:32:14;94217.28;;;16.59;nan
23166;BME280;11751;42.700;24.170;2023-05-08T04:34:40;94221.16;;;16.92;nan
23166;BME280;11751;42.700;24.170;2023-05-08T04:37:06;94215.34;;;17.27;nan
23166;BME280;11751;42.700;24.170;2023-05-08T04:39:32;94210.47;;;17.68;nan
23166;BME280;11751;42.700;24.170;2023-05-08T04:41:57;94219.22;;;17.81;nan
23166;BME280;11751;42.700;24.170;2023-05-08T04:44:27;94210.31;;;17.75;nan
23166;BME280;11751;42.700;24.170;2023-05-08T04:46:53;94209.47;;;17.63;nan
23166;BME280;11751;42.700;24.170;2023-05-08T04:49:19;94215.88;;;17.54;nan
23166;BME280;11751;42.700;24.170;2023-05-08T04:51:44;94207.72;;;17.39;nan
23166;BME280;11751;42.700;24.170;2023-05-08T04:54:09;94208.34;;;17.28;nan
23166;BME280;11751;42.700;24.170;2023-05-08T04:56:35;94209.69;;;16.99;nan
23166;BME280;11751;42.700;24.170;2023-05-08T04:59:00;94213.13;;;16.79;nan
23166;BME280;11751;42.700;24.170;2023-05-08T05:01:26;94215.78;;;16.58;nan
23166;BME280;11751;42.700;24.170;2023-05-08T05:03:52;94212.50;;;16.52;nan
23166;BME280;11751;42.700;24.170;2023-05-08T05:06:17;94202.25;;;16.47;nan
23166;BME280;11751;42.700;24.170;2023-05-08T05:08:43;94196.44;;;16.45;nan
23166;BME280;11751;42.700;24.170;2023-05-08T05:11:08;94199.09;;;16.43;nan
23166;BME280;11751;42.700;24.170;2023-05-08T05:13:33;94198.97;;;16.60;nan
23166;BME280;11751;42.700;24.170;2023-05-08T05:15:59;94197.63;;;16.80;nan
23166;BME280;11751;42.700;24.170;2023-05-08T05:18:24;94188.25;;;16.96;nan
23166;BME280;11751;42.700;24.170;2023-05-08T05:20:50;94194.03;;;17.26;nan
23166;BME280;11751;42.700;24.170;2023-05-08T05:23:15;94199.69;;;17.45;nan
23166;BME280;11751;42.700;24.170;2023-05-08T05:25:41;94202.19;;;17.51;nan
23166;BME280;11751;42.700;24.170;2023-05-08T05:28:06;94200.66;;;17.69;nan
23166;BME280;11751;42.700;24.170;2023-05-08T05:30:31;94194.53;;;18.02;nan
23166;BME280;11751;42.700;24.170;2023-05-08T05:32:57;94193.69;;;18.21;nan
23166;BME280;11751;42.700;24.170;2023-05-08T05:35:22;94184.97;;;18.38;nan
23166;BME280;11751;42.700;24.170;2023-05-08T05:37:48;94191.84;;;18.56;nan
23166;BME280;11751;42.700;24.170;2023-05-08T05:40:13;94183.06;;;18.93;nan
23166;BME280;11751;42.700;24.170;2023-05-08T05:42:39;94187.69;;;19.10;nan
23166;BME280;11751;42.700;24.170;2023-05-08T05:45:05;94184.41;;;19.13;nan
23166;BME280;11751;42.700;24.170;2023-05-08T05:47:30;94180.50;;;19.30;nan
23166;BME280;11751;42.700;24.170;2023-05-08T05:49:56;94175.25;;;19.47;nan
23166;BME280;11751;42.700;24.170;2023-05-08T05:52:22;94178.56;;;19.32;nan
23166;BME280;11751;42.700;24.170;2023-05-08T05:54:47;94182.28;;;19.46;nan
23166;BME280;11751;42.700;24.170;2023-05-08T05:57:12;94175.63;;;18.88;nan
23166;BME280;11751;42.700;24.170;2023-05-08T05:59:39;94176.16;;;18.96;nan
23166;BME280;11751;42.700;24.170;2023-05-08T06:02:04;94172.09;;;18.99;nan
23166;BME280;11751;42.700;24.170;2023-05-08T06:04:32;94165.97;;;18.82;nan
23166;BME280;11751;42.700;24.170;2023-05-08T06:06:57;94171.16;;;18.86;nan
23166;BME280;11751;42.700;24.170;2023-05-08T06:09:22;94169.09;;;18.65;nan
23166;BME280;11751;42.700;24.170;2023-05-08T06:11:48;94173.22;;;18.53;nan
23166;BME280;11751;42.700;24.170;2023-05-08T06:14:13;94165.91;;;18.29;nan
23166;BME280;11751;42.700;24.170;2023-05-08T06:16:39;94171.03;;;18.21;nan
23166;BME280;11751;42.700;24.170;2023-05-08T06:19:04;94159.88;;;18.44;nan
23166;BME280;11751;42.700;24.170;2023-05-08T06:21:29;94161.22;;;18.64;nan
23166;BME280;11751;42.700;24.170;2023-05-08T06:23:55;94166.00;;;18.40;nan
23166;BME280;11751;42.700;24.170;2023-05-08T06:26:20;94163.09;;;18.50;nan
23166;BME280;11751;42.700;24.170;2023-05-08T06:28:47;94167.50;;;18.11;nan
23166;BME280;11751;42.700;24.170;2023-05-08T06:31:12;94165.06;;;17.96;nan
23166;BME280;11751;42.700;24.170;2023-05-08T06:33:38;94169.31;;;17.76;nan
23166;BME280;11751;42.700;24.170;2023-05-08T06:36:04;94173.72;;;17.89;nan
23166;BME280;11751;42.700;24.170;2023-05-08T06:38:30;94164.91;;;17.94;nan
23166;BME280;11751;42.700;24.170;2023-05-08T06:40:56;94163.88;;;17.90;nan
23166;BME280;11751;42.700;24.170;2023-05-08T06:43:21;94157.22;;;17.45;nan
23166;BME280;11751;42.700;24.170;2023-05-08T06:45:47;94150.63;;;17.52;nan
23166;BME280;11751;42.700;24.170;2023-05-08T06:48:12;94148.09;;;17.56;nan
23166;BME280;11751;42.700;24.170;2023-05-08T06:50:38;94153.53;;;17.73;nan
23166;BME280;11751;42.700;24.170;2023-05-08T06:53:05;94150.84;;;17.75;nan
23166;BME280;11751;42.700;24.170;2023-05-08T06:55:31;94155.97;;;17.88;nan
23166;BME280;11751;42.700;24.170;2023-05-08T06:57:57;94149.28;;;18.14;nan
23166;BME280;11751;42.700;24.170;2023-05-08T07:00:22;94141.28;;;18.52;nan
23166;BME280;11751;42.700;24.170;2023-05-08T07:02:47;94142.97;;;18.46;nan
23166;BME280;11751;42.700;24.170;2023-05-08T07:05:13;94154.09;;;19.06;nan
23166;BME280;11751;42.700;24.170;2023-05-08T07:07:39;94143.16;;;19.45;nan
23166;BME280;11751;42.700;24.170;2023-05-08T07:10:07;94135.88;;;19.76;nan
23166;BME280;11751;42.700;24.170;2023-05-08T07:12:32;94147.53;;;20.03;nan
23166;BME280;11751;42.700;24.170;2023-05-08T07:14:57;94141.09;;;20.25;nan
23166;BME280;11751;42.700;24.170;2023-05-08T07:17:23;94143.81;;;20.35;nan
23166;BME280;11751;42.700;24.170;2023-05-08T07:19:49;94139.50;;;20.22;nan
23166;BME280;11751;42.700;24.170;2023-05-08T07:22:15;94157.19;;;19.98;nan
23166;BME280;11751;42.700;24.170;2023-05-08T07:24:40;94140.59;;;20.29;nan
23166;BME280;11751;42.700;24.170;2023-05-08T07:27:06;94138.78;;;19.99;nan
23166;BME280;11751;42.700;24.170;2023-05-08T07:29:33;94147.13;;;20.54;nan
23166;BME280;11751;42.700;24.170;2023-05-08T07:32:00;94144.28;;;20.43;nan
23166;BME280;11751;42.700;24.170;2023-05-08T07:34:25;94137.25;;;20.91;nan
23166;BME280;11751;42.700;24.170;2023-05-08T07:36:51;94142.94;;;20.91;nan
23166;BME280;11751;42.700;24.170;2023-05-08T07:39:16;94131.00;;;21.06;nan
23166;BME280;11751;42.700;24.170;2023-05-08T07:41:42;94133.72;;;21.04;nan
23166;BME280;11751;42.700;24.170;2023-05-08T07:44:07;94131.91;;;21.22;nan
23166;BME280;11751;42.700;24.170;2023-05-08T07:46:33;94125.91;;;20.80;nan
23166;BME280;11751;42.700;24.170;2023-05-08T07:48:59;94121.66;;;21.17;nan
23166;BME280;11751;42.700;24.170;2023-05-08T07:51:24;94121.75;;;21.44;nan
23166;BME280;11751;42.700;24.170;2023-05-08T07:53:51;94129.47;;;21.42;nan
23166;BME280;11751;42.700;24.170;2023-05-08T07:56:16;94124.78;;;21.10;nan
23166;BME280;11751;42.700;24.170;2023-05-08T07:58:42;94126.84;;;21.84;nan
23166;BME280;11751;42.700;24.170;2023-05-08T08:01:10;94127.19;;;22.03;nan
23166;BME280;11751;42.700;24.170;2023-05-08T08:03:36;94125.81;;;22.18;nan
23166;BME280;11751;42.700;24.170;2023-05-08T08:06:01;94113.81;;;22.33;nan
23166;BME280;11751;42.700;24.170;2023-05-08T08:08:27;94116.78;;;22.35;nan
23166;BME280;11751;42.700;24.170;2023-05-08T08:10:52;94124.03;;;22.64;nan
23166;BME280;11751;42.700;24.170;2023-05-08T08:13:18;94127.31;;;22.72;nan
23166;BME280;11751;42.700;24.170;2023-05-08T08:15:43;94120.91;;;22.87;nan
23166;BME280;11751;42.700;24.170;2023-05-08T08:18:09;94114.81;;;22.79;nan
23166;BME280;11751;42.700;24.170;2023-05-08T08:20:37;94097.00;;;22.94;nan
23166;BME280;11751;42.700;24.170;2023-05-08T08:23:02;94108.06;;;23.44;nan
23166;BME280;11751;42.700;24.170;2023-05-08T08:25:28;94098.09;;;23.30;nan
23166;BME280;11751;42.700;24.170;2023-05-08T08:27:54;94102.72;;;22.94;nan
23166;BME280;11751;42.700;24.170;2023-05-08T08:30:19;94098.06;;;22.87;nan
23166;BME280;11751;42.700;24.170;2023-05-08T08:32:45;94115.06;;;22.56;nan
23166;BME280;11751;42.700;24.170;2023-05-08T08:35:10;94111.19;;;22.37;nan
23166;BME280;11751;42.700;24.170;2023-05-08T08:37:36;94108.47;;;22.67;nan
23166;BME280;11751;42.700;24.170;2023-05-08T08:40:01;94102.03;;;22.67;nan
23166;BME280;11751;42.700;24.170;2023-05-08T08:42:27;94097.34;;;22.87;nan
23166;BME280;11751;42.700;24.170;2023-05-08T08:44:54;94098.28;;;22.91;nan
23166;BME280;11751;42.700;24.170;2023-05-08T08:47:21;94081.94;;;23.36;nan
23166;BME280;11751;42.700;24.170;2023-05-08T08:49:51;94084.09;;;23.51;nan
23166;BME280;11751;42.700;24.170;2023-05-08T08:52:25;94089.88;;;23.82;nan
23166;BME280;11751;42.700;24.170;2023-05-08T08:54:54;94088.06;;;23.44;nan
23166;BME280;11751;42.700;24.170;2023-05-08T08:57:22;94085.66;;;23.83;nan
23166;BME280;11751;42.700;24.170;2023-05-08T08:59:48;94079.16;;;23.82;nan
23166;BME280;11751;42.700;24.170;2023-05-08T09:02:17;94081.16;;;23.49;nan
23166;BME280;11751;42.700;24.170;2023-05-08T09:04:48;94072.09;;;23.39;nan
23166;BME280;11751;42.700;24.170;2023-05-08T09:07:13;94073.94;;;23.48;nan
23166;BME280;11751;42.700;24.170;2023-05-08T09:09:39;94067.69;;;23.51;nan
23166;BME280;11751;42.700;24.170;2023-05-08T09:12:08;94073.03;;;23.43;nan
23166;BME280;11751;42.700;24.170;2023-05-08T09:14:34;94069.00;;;23.64;nan
23166;BME280;11751;42.700;24.170;2023-05-08T09:17:00;94079.28;;;22.82;nan
23166;BME280;11751;42.700;24.170;2023-05-08T09:19:27;94073.56;;;22.82;nan
23166;BME280;11751;42.700;24.170;2023-05-08T09:21:53;94087.66;;;22.65;nan
23166;BME280;11751;42.700;24.170;2023-05-08T09:24:18;94073.63;;;22.55;nan
23166;BME280;11751;42.700;24.170;2023-05-08T09:26:44;94073.88;;;22.06;nan
23166;BME280;11751;42.700;24.170;2023-05-08T09:29:10;94086.94;;;22.11;nan
23166;BME280;11751;42.700;24.170;2023-05-08T09:31:37;94089.25;;;21.74;nan
23166;BME280;11751;42.700;24.170;2023-05-08T09:34:05;94088.19;;;21.29;nan
23166;BME280;11751;42.700;24.170;2023-05-08T09:36:31;94088.81;;;21.03;nan
23166;BME280;11751;42.700;24.170;2023-05-08T09:38:58;94086.69;;;20.31;nan
23166;BME280;11751;42.700;24.170;2023-05-08T09:41:24;94090.91;;;20.30;nan
23166;BME280;11751;42.700;24.170;2023-05-08T09:44:05;94087.84;;;20.14;nan
23166;BME280;11751;42.700;24.170;2023-05-08T09:46:32;94082.63;;;20.22;nan
23166;BME280;11751;42.700;24.170;2023-05-08T09:49:01;94081.28;;;19.89;nan
23166;BME280;11751;42.700;24.170;2023-05-08T09:51:29;94091.66;;;19.84;nan
23166;BME280;11751;42.700;24.170;2023-05-08T09:53:56;94087.97;;;19.82;nan
23166;BME280;11751;42.700;24.170;2023-05-08T09:58:58;94082.00;;;19.55;nan
23166;BME280;11751;42.700;24.170;2023-05-08T10:03:52;94064.22;;;19.32;nan
23166;BME280;11751;42.700;24.170;2023-05-08T10:06:18;94076.25;;;19.09;nan
23166;BME280;11751;42.700;24.170;2023-05-08T10:08:44;94080.31;;;19.06;nan
23166;BME280;11751;42.700;24.170;2023-05-08T10:11:17;94081.03;;;18.95;nan
23166;BME280;11751;42.700;24.170;2023-05-08T10:13:44;94080.38;;;18.86;nan
23166;BME280;11751;42.700;24.170;2023-05-08T10:16:17;94080.00;;;18.80;nan
23166;BME280;11751;42.700;24.170;2023-05-08T10:18:47;94081.38;;;18.90;nan
23166;BME280;11751;42.700;24.170;2023-05-08T10:21:13;94082.63;;;18.98;nan
23166;BME280;11751;42.700;24.170;2023-05-08T10:23:40;94093.38;;;18.68;nan
23166;BME280;11751;42.700;24.170;2023-05-08T10:26:11;94096.00;;;18.43;nan
23166;BME280;11751;42.700;24.170;2023-05-08T10:28:54;94098.41;;;17.95;nan
23166;BME280;11751;42.700;24.170;2023-05-08T10:31:25;94097.31;;;18.00;nan
23166;BME280;11751;42.700;24.170;2023-05-08T10:33:54;94096.16;;;18.24;nan
23166;BME280;11751;42.700;24.170;2023-05-08T10:36:23;94089.72;;;18.23;nan
23166;BME280;11751;42.700;24.170;2023-05-08T10:38:50;94088.56;;;17.96;nan
23166;BME280;11751;42.700;24.170;2023-05-08T10:41:18;94088.88;;;18.11;nan
23166;BME280;11751;42.700;24.170;2023-05-08T10:43:43;94086.97;;;18.35;nan
23166;BME280;11751;42.700;24.170;2023-05-08T10:46:38;94087.22;;;18.39;nan
23166;BME280;11751;42.700;24.170;2023-05-08T10:49:30;94088.88;;;18.53;nan
23166;BME280;11751;42.700;24.170;2023-05-08T10:52:16;94078.56;;;18.37;nan
23166;BME280;11751;42.700;24.170;2023-05-08T10:57:17;94087.34;;;18.41;nan
23166;BME280;11751;42.700;24.170;2023-05-08T10:59:46;94087.34;;;18.41;nan
23166;BME280;11751;42.700;24.170;2023-05-08T11:02:12;94087.13;;;18.06;nan
23166;BME280;11751;42.700;24.170;2023-05-08T11:04:38;94079.09;;;18.03;nan
23166;BME280;11751;42.700;24.170;2023-05-08T11:07:03;94075.84;;;18.18;nan
23166;BME280;11751;42.700;24.170;2023-05-08T11:12:22;94059.03;;;18.52;nan
23166;BME280;11751;42.700;24.170;2023-05-08T11:17:23;94070.06;;;19.01;nan
23166;BME280;11751;42.700;24.170;2023-05-08T11:19:59;94058.31;;;19.39;nan
23166;BME280;11751;42.700;24.170;2023-05-08T11:22:27;94066.06;;;19.73;nan
23166;BME280;11751;42.700;24.170;2023-05-08T11:24:58;94058.31;;;19.96;nan
23166;BME280;11751;42.700;24.170;2023-05-08T11:30:19;94060.03;;;20.49;nan
23166;BME280;11751;42.700;24.170;2023-05-08T11:35:49;94064.09;;;20.58;nan
23166;BME280;11751;42.700;24.170;2023-05-08T11:40:45;94056.00;;;20.41;nan
23166;BME280;11751;42.700;24.170;2023-05-08T11:45:59;94043.72;;;20.50;nan
23166;BME280;11751;42.700;24.170;2023-05-08T11:48:25;94033.72;;;20.49;nan
23166;BME280;11751;42.700;24.170;2023-05-08T11:50:51;94026.41;;;20.70;nan
23166;BME280;11751;42.700;24.170;2023-05-08T11:53:17;94023.31;;;20.53;nan
23166;BME280;11751;42.700;24.170;2023-05-08T11:55:47;94020.06;;;20.59;nan
23166;BME280;11751;42.700;24.170;2023-05-08T11:58:13;94023.69;;;20.84;nan
23166;BME280;11751;42.700;24.170;2023-05-08T12:00:40;94032.81;;;21.07;nan
23166;BME280;11751;42.700;24.170;2023-05-08T12:03:06;94022.16;;;21.08;nan
23166;BME280;11751;42.700;24.170;2023-05-08T12:05:31;94019.91;;;20.93;nan
23166;BME280;11751;42.700;24.170;2023-05-08T12:07:58;94013.13;;;20.86;nan
23166;BME280;11751;42.700;24.170;2023-05-08T12:10:23;94006.00;;;20.99;nan
23166;BME280;11751;42.700;24.170;2023-05-08T12:12:49;94002.50;;;21.25;nan
23166;BME280;11751;42.700;24.170;2023-05-08T12:15:14;93979.09;;;21.40;nan
23166;BME280;11751;42.700;24.170;2023-05-08T12:17:41;93989.06;;;21.66;nan
23166;BME280;11751;42.700;24.170;2023-05-08T12:20:13;93981.88;;;21.92;nan
23166;BME280;11751;42.700;24.170;2023-05-08T12:22:40;93976.88;;;22.33;nan
23166;BME280;11751;42.700;24.170;2023-05-08T12:25:06;93971.94;;;22.48;nan
23166;BME280;11751;42.700;24.170;2023-05-08T12:27:35;93967.00;;;22.49;nan
23166;BME280;11751;42.700;24.170;2023-05-08T12:30:08;93960.72;;;22.10;nan
23166;BME280;11751;42.700;24.170;2023-05-08T12:32:39;93973.56;;;22.38;nan
23166;BME280;11751;42.700;24.170;2023-05-08T12:35:06;93971.38;;;22.65;nan
23166;BME280;11751;42.700;24.170;2023-05-08T12:37:32;93966.66;;;22.85;nan
23166;BME280;11751;42.700;24.170;2023-05-08T12:39:58;93967.03;;;22.64;nan
23166;BME280;11751;42.700;24.170;2023-05-08T12:45:08;93970.56;;;22.07;nan
23166;BME280;11751;42.700;24.170;2023-05-08T12:47:44;93963.25;;;22.04;nan
23166;BME280;11751;42.700;24.170;2023-05-08T12:50:10;93957.00;;;22.08;nan
23166;BME280;11751;42.700;24.170;2023-05-08T12:52:38;93959.50;;;21.73;nan
23166;BME280;11751;42.700;24.170;2023-05-08T12:55:03;93961.72;;;21.74;nan
23166;BME280;11751;42.700;24.170;2023-05-08T12:57:29;93965.19;;;21.73;nan
23166;BME280;11751;42.700;24.170;2023-05-08T13:00:02;93958.53;;;21.55;nan
23166;BME280;11751;42.700;24.170;2023-05-08T13:02:29;93957.81;;;21.68;nan
23166;BME280;11751;42.700;24.170;2023-05-08T13:04:54;93960.47;;;21.64;nan
23166;BME280;11751;42.700;24.170;2023-05-08T13:07:20;93960.16;;;21.58;nan
23166;BME280;11751;42.700;24.170;2023-05-08T13:09:56;93966.16;;;21.64;nan
23166;BME280;11751;42.700;24.170;2023-05-08T13:12:22;93963.59;;;21.43;nan
23166;BME280;11751;42.700;24.170;2023-05-08T13:14:47;93967.53;;;21.11;nan
23166;BME280;11751;42.700;24.170;2023-05-08T13:17:18;93972.81;;;21.03;nan
23166;BME280;11751;42.700;24.170;2023-05-08T13:19:44;93971.38;;;20.66;nan
23166;BME280;11751;42.700;24.170;2023-05-08T13:22:09;93973.44;;;20.52;nan
23166;BME280;11751;42.700;24.170;2023-05-08T13:24:34;93966.53;;;20.55;nan
23166;BME280;11751;42.700;24.170;2023-05-08T13:27:00;93971.56;;;20.57;nan
23166;BME280;11751;42.700;24.170;2023-05-08T13:29:25;93970.97;;;20.22;nan
23166;BME280;11751;42.700;24.170;2023-05-08T13:31:51;93967.41;;;19.62;nan
23166;BME280;11751;42.700;24.170;2023-05-08T13:34:17;93970.09;;;19.72;nan
23166;BME280;11751;42.700;24.170;2023-05-08T13:36:42;93988.44;;;19.46;nan
23166;BME280;11751;42.700;24.170;2023-05-08T13:39:07;93987.91;;;19.03;nan
23166;BME280;11751;42.700;24.170;2023-05-08T13:41:33;93990.06;;;18.71;nan
23166;BME280;11751;42.700;24.170;2023-05-08T13:43:58;93987.16;;;18.48;nan
23166;BME280;11751;42.700;24.170;2023-05-08T13:46:24;93972.19;;;18.36;nan
23166;BME280;11751;42.700;24.170;2023-05-08T13:48:49;93969.28;;;17.92;nan
23166;BME280;11751;42.700;24.170;2023-05-08T13:51:14;93947.81;;;17.89;nan
23166;BME280;11751;42.700;24.170;2023-05-08T13:53:40;93953.56;;;18.01;nan
23166;BME280;11751;42.700;24.170;2023-05-08T13:56:05;93945.13;;;17.91;nan
23166;BME280;11751;42.700;24.170;2023-05-08T13:58:31;93953.91;;;17.74;nan
23166;BME280;11751;42.700;24.170;2023-05-08T14:00:56;93958.09;;;17.73;nan